Phoenix, Oregon
Current Conditions -  °F | °C
As of 10:53 AM on Sunday 21 Dec 2014 (Local Time) from KMFR Reporting Station
Overcast Overcast  
Wind Chill: 58°   Ceiling: 4700
Heat Index: 58°   Visibility: 10mi
Dew Point: 55°   Wind: 0mph
Humidity: 90%   Direction: NA
Pressure: 30.18"   Gusts: NA
Location:  42.28°N, 122.82°W
Report Text: KMFR 211853Z 00000KT 10SM BKN047 OVC060 14/13 A3018 RMK AO2 SLP218 T01440128
Loading
Personal Weather Stations






























Interactive Weather Map New forecast layout! Learn more

10-Day Weather Forecast

Advertisements
Track Severe Weather on mobile